createdAt,value
2023-12-23T00:01:30.427Z,1.45
2023-12-23T00:04:33.014Z,1.45
2023-12-23T00:07:37.043Z,1.40
2023-12-23T00:10:39.707Z,1.39
2023-12-23T00:13:42.272Z,1.37
2023-12-23T00:16:44.767Z,1.36
2023-12-23T00:19:47.479Z,1.35
2023-12-23T00:22:50.176Z,1.34
2023-12-23T00:25:52.806Z,1.37
2023-12-23T00:28:56.068Z,1.35
2023-12-23T00:31:58.826Z,1.40
2023-12-23T00:35:01.426Z,1.35
2023-12-23T00:38:04.174Z,1.35
2023-12-23T00:41:06.973Z,1.32
2023-12-23T00:44:10.038Z,1.33
2023-12-23T00:47:12.628Z,1.27
2023-12-23T00:50:15.382Z,1.29
2023-12-23T00:53:18.088Z,1.25
2023-12-23T00:56:24.033Z,1.23
2023-12-23T00:59:26.587Z,1.20
2023-12-23T01:02:29.010Z,1.22
2023-12-23T01:05:31.634Z,1.22
2023-12-23T01:08:34.192Z,1.25
2023-12-23T01:11:36.777Z,1.24
2023-12-23T01:14:39.350Z,1.23
2023-12-23T01:17:42.506Z,1.25
2023-12-23T01:20:45.109Z,1.28
2023-12-23T01:23:47.710Z,1.24
2023-12-23T01:26:50.195Z,1.24
2023-12-23T01:29:52.896Z,1.25
2023-12-23T01:32:55.524Z,1.23
2023-12-23T01:35:58.188Z,1.21
2023-12-23T01:39:00.897Z,1.16
2023-12-23T01:42:03.504Z,1.18
2023-12-23T01:45:06.501Z,1.24
2023-12-23T01:48:12.154Z,1.28
2023-12-23T01:51:15.790Z,1.29
2023-12-23T01:54:20.485Z,1.32
2023-12-23T01:57:23.107Z,1.28
2023-12-23T02:00:25.639Z,1.28
2023-12-23T02:03:29.851Z,1.23
2023-12-23T02:06:32.825Z,1.21
2023-12-23T02:09:36.200Z,1.15
2023-12-23T02:13:13.038Z,1.15
2023-12-23T02:16:16.937Z,1.19
2023-12-23T02:19:19.745Z,1.26
2023-12-23T02:22:22.424Z,1.33
2023-12-23T02:25:25.084Z,1.37
2023-12-23T02:28:27.725Z,1.42
2023-12-23T02:31:31.595Z,1.49
2023-12-23T02:34:35.246Z,1.52
2023-12-23T02:37:37.831Z,1.55
2023-12-23T02:40:40.390Z,1.62
2023-12-23T02:43:42.989Z,1.59
2023-12-23T02:46:45.540Z,1.59
2023-12-23T02:49:48.074Z,1.60
2023-12-23T02:52:51.725Z,1.65
2023-12-23T02:55:54.541Z,1.62
2023-12-23T02:58:57.094Z,1.57
2023-12-23T03:01:59.708Z,1.54
2023-12-23T03:05:02.449Z,1.52
2023-12-23T03:08:05.363Z,1.51
2023-12-23T03:11:09.653Z,1.53
2023-12-23T03:14:12.361Z,1.50
2023-12-23T03:17:15.102Z,1.50
2023-12-23T03:20:17.799Z,1.51
2023-12-23T03:23:20.469Z,1.47
2023-12-23T03:26:23.322Z,1.50
2023-12-23T03:29:26.389Z,1.46
2023-12-23T03:32:28.969Z,1.45
2023-12-23T03:35:31.530Z,1.40
2023-12-23T03:38:34.195Z,1.35
2023-12-23T03:41:36.686Z,1.35
2023-12-23T03:44:39.137Z,1.37
2023-12-23T03:47:42.430Z,1.46
2023-12-23T03:50:45.131Z,1.60
2023-12-23T03:53:47.932Z,1.70
2023-12-23T03:56:52.092Z,1.78
2023-12-23T03:59:54.821Z,1.97
2023-12-23T04:02:58.638Z,2.06
2023-12-23T04:06:02.580Z,2.06
2023-12-23T04:09:04.999Z,2.02
2023-12-23T04:12:07.860Z,1.99
2023-12-23T04:15:11.112Z,2.02
2023-12-23T04:18:13.816Z,2.02
2023-12-23T04:21:16.381Z,2.00
2023-12-23T04:24:21.188Z,2.03
2023-12-23T04:27:23.645Z,1.96
2023-12-23T04:30:26.245Z,1.92
2023-12-23T04:33:29.571Z,1.96
2023-12-23T04:36:32.566Z,2.00
2023-12-23T04:39:35.181Z,2.06
2023-12-23T04:42:39.192Z,2.10
2023-12-23T04:45:41.872Z,2.09
2023-12-23T04:48:44.781Z,2.08
2023-12-23T04:51:47.433Z,2.21
2023-12-23T04:54:50.246Z,2.29
2023-12-23T04:57:52.953Z,2.28
2023-12-23T05:00:55.476Z,2.20
2023-12-23T05:03:58.047Z,2.34
2023-12-23T05:07:00.686Z,2.42
2023-12-23T05:10:04.271Z,2.58
2023-12-23T05:13:06.934Z,2.59
2023-12-23T05:16:09.885Z,2.54
2023-12-23T05:19:12.472Z,2.49
2023-12-23T05:22:15.698Z,2.40
2023-12-23T05:25:18.271Z,2.61
2023-12-23T05:28:21.018Z,2.76
2023-12-23T05:31:23.886Z,2.82
2023-12-23T05:34:26.905Z,2.77
2023-12-23T05:37:30.345Z,2.77
2023-12-23T05:40:32.886Z,2.74
2023-12-23T05:43:35.671Z,2.65
2023-12-23T05:46:38.200Z,2.58
2023-12-23T05:49:40.833Z,2.51
2023-12-23T05:52:45.377Z,2.56
2023-12-23T05:55:48.437Z,2.67
2023-12-23T05:58:51.055Z,2.57
2023-12-23T06:01:53.641Z,2.56
2023-12-23T06:04:56.551Z,2.55
2023-12-23T06:07:59.611Z,2.61
2023-12-23T06:11:05.693Z,2.62
2023-12-23T06:14:08.900Z,2.71
2023-12-23T06:17:11.479Z,2.77
2023-12-23T06:20:14.043Z,2.76
2023-12-23T06:23:16.595Z,2.71
2023-12-23T06:26:19.221Z,2.72
2023-12-23T06:29:21.897Z,2.77
2023-12-23T06:32:24.734Z,2.71
2023-12-23T06:35:27.456Z,2.76
2023-12-23T06:38:30.028Z,2.83
2023-12-23T06:41:32.676Z,2.83
2023-12-23T06:44:35.258Z,2.89
2023-12-23T06:47:37.975Z,2.90
2023-12-23T06:50:40.643Z,2.78
2023-12-23T06:53:43.232Z,2.73
2023-12-23T06:56:45.744Z,2.69
2023-12-23T06:59:48.422Z,2.65
2023-12-23T07:02:52.850Z,2.59
2023-12-23T07:05:55.744Z,2.65
2023-12-23T07:08:58.290Z,2.64
2023-12-23T07:12:00.839Z,2.62
2023-12-23T07:15:05.109Z,2.66
2023-12-23T07:18:08.386Z,2.80
2023-12-23T07:21:11.079Z,2.85
2023-12-23T07:24:13.666Z,2.88
2023-12-23T07:27:16.167Z,2.85
2023-12-23T07:30:18.718Z,2.94
2023-12-23T07:33:22.502Z,2.89
2023-12-23T07:36:25.052Z,2.93
2023-12-23T07:39:27.634Z,2.94
2023-12-23T07:42:30.144Z,2.99
2023-12-23T07:45:33.085Z,3.00
2023-12-23T07:48:35.547Z,2.98
2023-12-23T07:51:38.978Z,3.04
2023-12-23T07:54:41.484Z,3.04
2023-12-23T07:57:44.042Z,3.05
2023-12-23T08:00:47.713Z,3.11
2023-12-23T08:03:50.370Z,3.08
2023-12-23T08:06:53.867Z,3.11
2023-12-23T08:09:56.426Z,3.28
2023-12-23T08:12:58.928Z,3.24
2023-12-23T08:16:02.074Z,3.22
2023-12-23T08:19:04.991Z,3.21
2023-12-23T08:22:07.852Z,3.36
2023-12-23T08:25:10.356Z,3.31
2023-12-23T08:28:13.007Z,3.42
2023-12-23T08:31:15.559Z,3.38
2023-12-23T08:34:20.168Z,3.40
2023-12-23T08:37:24.030Z,3.42
2023-12-23T08:40:27.325Z,3.37
2023-12-23T08:43:29.876Z,3.47
2023-12-23T08:46:35.255Z,3.59
2023-12-23T08:49:43.086Z,3.50
2023-12-23T08:52:45.712Z,3.48
2023-12-23T08:55:48.344Z,3.49
2023-12-23T08:58:50.806Z,3.56
2023-12-23T09:01:53.280Z,3.43
2023-12-23T09:04:55.845Z,3.40
2023-12-23T09:07:58.819Z,3.47
2023-12-23T09:11:05.510Z,3.39
2023-12-23T09:14:08.064Z,3.49
2023-12-23T09:17:10.548Z,3.40
2023-12-23T09:20:13.175Z,3.53
2023-12-23T09:23:15.842Z,3.38
2023-12-23T09:26:18.618Z,3.37
2023-12-23T09:29:21.500Z,3.45
2023-12-23T09:32:24.280Z,3.35
2023-12-23T09:35:26.847Z,3.35
2023-12-23T09:38:29.413Z,3.46
2023-12-23T09:41:33.311Z,3.36
2023-12-23T09:44:35.883Z,3.55
2023-12-23T09:47:38.553Z,3.36
2023-12-23T09:50:41.233Z,3.37
2023-12-23T09:53:47.956Z,3.36
2023-12-23T09:56:51.982Z,3.47
2023-12-23T09:59:55.505Z,3.39
2023-12-23T10:02:58.103Z,3.32
2023-12-23T10:06:02.210Z,3.24
2023-12-23T10:09:05.095Z,3.24
2023-12-23T10:12:08.051Z,3.20
2023-12-23T10:15:12.873Z,3.25
2023-12-23T10:18:15.573Z,3.14
2023-12-23T10:21:19.657Z,3.19
2023-12-23T10:24:22.150Z,3.21
2023-12-23T10:27:27.417Z,3.25
2023-12-23T10:30:34.527Z,3.23
2023-12-23T10:33:42.884Z,3.21
2023-12-23T10:36:45.780Z,3.19
2023-12-23T10:39:54.042Z,3.15
2023-12-23T10:42:59.570Z,3.18
2023-12-23T10:46:04.576Z,3.13
2023-12-23T10:49:08.758Z,3.08
2023-12-23T10:52:12.607Z,3.11
2023-12-23T10:55:17.389Z,3.11
2023-12-23T10:58:22.073Z,3.17
2023-12-23T11:01:30.341Z,3.17
2023-12-23T11:04:33.205Z,3.16
2023-12-23T11:07:42.240Z,3.12
2023-12-23T11:10:46.588Z,3.14
2023-12-23T11:13:49.181Z,3.17
2023-12-23T11:16:51.727Z,3.15
2023-12-23T11:19:58.931Z,3.12
2023-12-23T11:23:21.818Z,3.08
2023-12-23T11:26:36.565Z,3.07
2023-12-23T11:29:39.843Z,3.02
2023-12-23T11:32:45.071Z,3.00
2023-12-23T11:35:48.636Z,2.82
2023-12-23T11:38:53.351Z,2.72
2023-12-23T11:41:56.582Z,2.56
2023-12-23T11:45:00.946Z,2.52
2023-12-23T11:48:03.732Z,2.44
2023-12-23T11:51:08.193Z,2.30
2023-12-23T11:54:10.847Z,2.14
2023-12-23T11:57:13.547Z,2.08
2023-12-23T12:00:16.400Z,2.06
2023-12-23T12:03:18.947Z,2.07
2023-12-23T12:06:21.545Z,1.97
2023-12-23T12:09:24.279Z,1.97
2023-12-23T12:12:27.747Z,1.81
2023-12-23T12:15:30.301Z,1.75
2023-12-23T12:18:32.880Z,1.61
2023-12-23T12:21:35.451Z,1.49
2023-12-23T12:24:39.132Z,1.47
2023-12-23T12:27:41.931Z,1.37
2023-12-23T12:30:48.336Z,1.31
2023-12-23T12:33:51.540Z,1.29
2023-12-23T12:36:54.961Z,1.30
2023-12-23T12:39:59.154Z,1.20
2023-12-23T12:43:09.262Z,1.13
2023-12-23T12:46:16.195Z,1.12
2023-12-23T12:49:20.542Z,1.14
2023-12-23T12:52:22.996Z,1.20
2023-12-23T12:55:25.687Z,1.13
2023-12-23T12:58:28.243Z,1.16
2023-12-23T13:01:30.843Z,1.19
2023-12-23T13:04:33.534Z,1.21
2023-12-23T13:07:36.062Z,1.21
2023-12-23T13:10:38.635Z,1.22
2023-12-23T13:13:41.142Z,1.21
2023-12-23T13:16:46.373Z,1.19
2023-12-23T13:19:50.393Z,1.07
2023-12-23T13:22:53.291Z,1.04
2023-12-23T13:25:56.087Z,1.06
2023-12-23T13:28:58.688Z,0.93
2023-12-23T13:32:01.300Z,0.86
2023-12-23T13:35:04.730Z,0.80
2023-12-23T13:38:07.658Z,0.80
2023-12-23T13:41:11.358Z,0.79
2023-12-23T13:44:14.045Z,0.76
2023-12-23T13:47:16.671Z,0.74
2023-12-23T13:50:19.359Z,0.72
2023-12-23T13:53:21.919Z,0.71
2023-12-23T13:56:24.937Z,0.66
2023-12-23T13:59:27.564Z,0.64
2023-12-23T14:02:30.208Z,0.66
2023-12-23T14:05:32.855Z,0.62
2023-12-23T14:08:35.823Z,0.61
2023-12-23T14:11:38.398Z,0.61
2023-12-23T14:14:40.898Z,0.63
2023-12-23T14:17:43.502Z,0.60
2023-12-23T14:20:46.078Z,0.62
2023-12-23T14:23:48.663Z,0.67
2023-12-23T14:26:51.215Z,0.69
2023-12-23T14:29:53.718Z,0.69
2023-12-23T14:32:56.353Z,0.64
2023-12-23T14:35:59.819Z,0.67
2023-12-23T14:39:03.955Z,0.59
2023-12-23T14:42:06.649Z,0.56
2023-12-23T14:45:09.722Z,0.51
2023-12-23T14:48:12.639Z,0.53
2023-12-23T14:51:15.292Z,0.56
2023-12-23T14:54:17.749Z,0.62
2023-12-23T14:57:20.332Z,0.64
2023-12-23T15:00:22.926Z,0.65
2023-12-23T15:03:25.676Z,0.70
2023-12-23T15:06:28.544Z,0.66
2023-12-23T15:09:31.682Z,0.61
2023-12-23T15:12:34.421Z,0.66
2023-12-23T15:15:37.166Z,0.62
2023-12-23T15:18:39.924Z,0.61
2023-12-23T15:21:42.415Z,0.59
2023-12-23T15:24:44.985Z,0.60
2023-12-23T15:27:47.574Z,0.60
2023-12-23T15:30:56.436Z,0.54
2023-12-23T15:33:59.750Z,0.53
2023-12-23T15:37:02.439Z,0.54
2023-12-23T15:40:06.341Z,0.58
2023-12-23T15:43:11.114Z,0.52
2023-12-23T15:46:17.169Z,0.57
2023-12-23T15:49:19.810Z,0.54
2023-12-23T15:52:22.497Z,0.51
2023-12-23T15:55:25.879Z,0.55
2023-12-23T15:58:28.512Z,0.59
2023-12-23T16:01:31.050Z,0.61
2023-12-23T16:04:33.797Z,0.57
2023-12-23T16:07:36.427Z,0.55
2023-12-23T16:10:39.696Z,0.50
2023-12-23T16:13:48.519Z,0.56
2023-12-23T16:16:51.285Z,0.51
2023-12-23T16:19:54.012Z,0.53
2023-12-23T16:22:56.671Z,0.49
2023-12-23T16:26:00.402Z,0.50
2023-12-23T16:29:04.752Z,0.48
2023-12-23T16:32:07.355Z,0.48
2023-12-23T16:35:10.122Z,0.52
2023-12-23T16:38:12.749Z,0.42
2023-12-23T16:41:15.359Z,0.43
2023-12-23T16:44:18.104Z,0.41
2023-12-23T16:47:20.858Z,0.47
2023-12-23T16:50:23.616Z,0.50
2023-12-23T16:53:26.231Z,0.58
2023-12-23T16:56:28.823Z,0.59
2023-12-23T16:59:31.513Z,0.63
2023-12-23T17:02:34.221Z,0.64
2023-12-23T17:05:36.867Z,0.63
2023-12-23T17:08:40.618Z,0.60
2023-12-23T17:11:43.199Z,0.67
2023-12-23T17:14:49.306Z,0.74
2023-12-23T17:17:51.966Z,0.77
2023-12-23T17:20:54.614Z,0.76
2023-12-23T17:23:57.135Z,0.75
2023-12-23T17:27:01.487Z,0.89
2023-12-23T17:30:04.525Z,0.81
2023-12-23T17:33:13.439Z,0.66
2023-12-23T17:36:16.497Z,0.72
2023-12-23T17:39:22.025Z,0.70
2023-12-23T17:42:24.601Z,0.69
2023-12-23T17:45:27.092Z,0.71
2023-12-23T17:48:29.695Z,0.71
2023-12-23T17:51:32.370Z,0.69
2023-12-23T17:54:34.890Z,0.65
2023-12-23T17:57:37.517Z,0.64
2023-12-23T18:00:40.105Z,0.63
2023-12-23T18:03:42.732Z,0.62
2023-12-23T18:06:45.712Z,0.65
2023-12-23T18:09:48.218Z,0.61
2023-12-23T18:12:51.296Z,0.62
2023-12-23T18:15:55.806Z,0.61
2023-12-23T18:18:58.377Z,0.59
2023-12-23T18:22:02.672Z,0.57
2023-12-23T18:25:06.044Z,0.62
2023-12-23T18:28:08.726Z,0.65
2023-12-23T18:31:11.264Z,0.64
2023-12-23T18:34:14.012Z,0.63
2023-12-23T18:37:17.809Z,0.64
2023-12-23T18:40:20.508Z,0.63
2023-12-23T18:43:23.020Z,0.65
2023-12-23T18:46:25.687Z,0.61
2023-12-23T18:49:28.492Z,0.67
2023-12-23T18:52:31.032Z,0.61
2023-12-23T18:55:34.292Z,0.54
2023-12-23T18:58:36.923Z,0.57
2023-12-23T19:01:39.463Z,0.54
2023-12-23T19:04:42.266Z,0.55
2023-12-23T19:07:44.792Z,0.51
2023-12-23T19:10:47.828Z,0.58
2023-12-23T19:13:50.360Z,0.52
2023-12-23T19:16:53.140Z,0.52
2023-12-23T19:19:55.776Z,0.56
2023-12-23T19:22:58.741Z,0.63
2023-12-23T19:26:01.272Z,0.63
2023-12-23T19:29:03.911Z,0.68
2023-12-23T19:32:06.888Z,0.67
2023-12-23T19:35:10.098Z,0.68
2023-12-23T19:38:12.833Z,0.74
2023-12-23T19:41:15.777Z,0.78
2023-12-23T19:44:19.102Z,0.87
2023-12-23T19:47:21.715Z,0.88
2023-12-23T19:50:24.284Z,0.74
2023-12-23T19:53:29.003Z,0.94
2023-12-23T19:56:31.721Z,1.03
2023-12-23T19:59:34.408Z,0.97
2023-12-23T20:02:37.051Z,0.89
2023-12-23T20:05:39.768Z,0.87
2023-12-23T20:08:42.455Z,0.99
2023-12-23T20:11:45.272Z,0.91
2023-12-23T20:14:47.848Z,1.07
2023-12-23T20:17:50.524Z,1.08
2023-12-23T20:20:53.078Z,1.17
2023-12-23T20:23:55.630Z,1.33
2023-12-23T20:26:59.763Z,1.41
2023-12-23T20:30:03.891Z,1.47
2023-12-23T20:33:06.526Z,1.50
2023-12-23T20:36:09.358Z,1.56
2023-12-23T20:39:11.986Z,1.49
2023-12-23T20:42:28.243Z,1.57
2023-12-23T20:45:30.750Z,1.59
2023-12-23T20:48:33.547Z,1.56
2023-12-23T20:51:36.293Z,1.70
2023-12-23T20:54:39.735Z,1.59
2023-12-23T20:57:42.256Z,1.66
2023-12-23T21:00:45.021Z,1.66
2023-12-23T21:03:47.722Z,1.67
2023-12-23T21:06:51.143Z,1.64
2023-12-23T21:09:56.263Z,1.62
2023-12-23T21:13:01.109Z,1.64
2023-12-23T21:16:04.563Z,1.61
2023-12-23T21:19:07.203Z,1.63
2023-12-23T21:22:09.833Z,1.61
2023-12-23T21:25:12.495Z,1.61
2023-12-23T21:28:17.071Z,1.59
2023-12-23T21:31:19.635Z,1.58
2023-12-23T21:34:23.319Z,1.53
2023-12-23T21:37:25.920Z,1.51
2023-12-23T21:40:28.495Z,1.46
2023-12-23T21:43:31.161Z,1.43
2023-12-23T21:46:33.679Z,1.43
2023-12-23T21:49:36.271Z,1.45
2023-12-23T21:52:42.138Z,1.45
2023-12-23T21:55:44.674Z,1.46
2023-12-23T21:58:48.486Z,1.43
2023-12-23T22:01:51.059Z,1.41
2023-12-23T22:04:53.854Z,1.40
2023-12-23T22:07:56.474Z,1.42
2023-12-23T22:10:59.025Z,1.39
2023-12-23T22:14:01.688Z,1.38
2023-12-23T22:17:04.588Z,1.36
2023-12-23T22:20:07.557Z,1.41
2023-12-23T22:23:10.624Z,1.41
2023-12-23T22:26:13.861Z,1.41
2023-12-23T22:29:16.504Z,1.45
2023-12-23T22:32:19.128Z,1.44
2023-12-23T22:35:21.794Z,1.46
2023-12-23T22:38:24.421Z,1.53
2023-12-23T22:41:28.780Z,1.47
2023-12-23T22:44:31.443Z,1.50
2023-12-23T22:47:34.306Z,1.55
2023-12-23T22:50:36.975Z,1.62
2023-12-23T22:53:39.536Z,1.60
2023-12-23T22:56:42.080Z,1.62
2023-12-23T22:59:44.625Z,1.62
2023-12-23T23:02:47.513Z,1.62
2023-12-23T23:05:50.935Z,1.66
2023-12-23T23:08:53.784Z,1.63
2023-12-23T23:11:56.300Z,1.65
2023-12-23T23:14:58.790Z,1.64
2023-12-23T23:18:01.657Z,1.62
2023-12-23T23:21:04.467Z,1.61
2023-12-23T23:24:07.229Z,1.60
2023-12-23T23:27:09.771Z,1.60
2023-12-23T23:30:12.670Z,1.58
2023-12-23T23:33:15.343Z,1.56
2023-12-23T23:36:19.914Z,1.59
2023-12-23T23:39:22.500Z,1.57
2023-12-23T23:42:25.086Z,1.60
2023-12-23T23:45:27.623Z,1.60
2023-12-23T23:48:30.210Z,1.61
2023-12-23T23:51:32.768Z,1.61
2023-12-23T23:54:35.303Z,1.58
2023-12-23T23:57:42.282Z,1.60
